UAL254 KSAT-KEWR
Flight info
| Callsign | UAL254 |
|---|---|
| Flight time | N/A |
| Altitude | 35000 |
| Route | YODUH2 KLNGR DCT FUZ DCT GRAZN Q28 PXV DCT RINTE DCT KLYNE Q29 DORET J584 SLT FQM3 |
| Aircraft | B739/M-SDE2E3FGHIRWXY/LB1 |
Departure
| Time | 2026-04-26 14:50 |
|---|---|
| Airport | San Antonio International Airport (KSAT) |
Arrival
| Time | N/A |
|---|---|
| Airport | Newark Liberty International Airport (KEWR) |
| Time | Latitude | Longitude | Altitude | Speed | Heading |
|---|---|---|---|---|---|
| 2026-04-26 14:22 | 29.52873 | -98.47294 | 833 ft | 0 kts | 132° |
| 2026-04-26 14:40 | 29.52886 | -98.47311 | 840 ft | 4 kts | 127° |
| 2026-04-26 14:40 | 29.52900 | -98.47336 | 839 ft | 4 kts | 110° |
| 2026-04-26 14:41 | 29.52903 | -98.47363 | 840 ft | 4 kts | 64° |
| 2026-04-26 14:41 | 29.52896 | -98.47375 | 840 ft | 2 kts | 41° |
| 2026-04-26 14:41 | 29.52895 | -98.47376 | 840 ft | 2 kts | 41° |
| 2026-04-26 14:43 | 29.52898 | -98.47372 | 840 ft | 2 kts | 41° |
| 2026-04-26 14:44 | 29.52929 | -98.47342 | 841 ft | 9 kts | 42° |
| 2026-04-26 14:44 | 29.52975 | -98.47294 | 842 ft | 9 kts | 43° |
| 2026-04-26 14:44 | 29.53026 | -98.47260 | 843 ft | 9 kts | 2° |
| 2026-04-26 14:44 | 29.53073 | -98.47298 | 845 ft | 8 kts | 311° |
| 2026-04-26 14:45 | 29.53108 | -98.47353 | 846 ft | 9 kts | 302° |
| 2026-04-26 14:45 | 29.53135 | -98.47402 | 846 ft | 12 kts | 306° |
| 2026-04-26 14:45 | 29.53228 | -98.47399 | 844 ft | 9 kts | 352° |
| 2026-04-26 14:45 | 29.53269 | -98.47448 | 845 ft | 9 kts | 310° |
| 2026-04-26 14:46 | 29.53309 | -98.47501 | 846 ft | 10 kts | 312° |
| 2026-04-26 14:46 | 29.53365 | -98.47572 | 847 ft | 15 kts | 311° |
| 2026-04-26 14:46 | 29.53447 | -98.47679 | 849 ft | 20 kts | 311° |
| 2026-04-26 14:46 | 29.53541 | -98.47799 | 853 ft | 20 kts | 311° |
| 2026-04-26 14:47 | 29.53632 | -98.47915 | 855 ft | 19 kts | 311° |
| 2026-04-26 14:47 | 29.53718 | -98.48029 | 858 ft | 19 kts | 311° |
| 2026-04-26 14:47 | 29.53804 | -98.48137 | 859 ft | 18 kts | 311° |
| 2026-04-26 14:47 | 29.53886 | -98.48242 | 866 ft | 17 kts | 311° |
| 2026-04-26 14:48 | 29.53964 | -98.48343 | 866 ft | 17 kts | 311° |
| 2026-04-26 14:48 | 29.54040 | -98.48441 | 866 ft | 16 kts | 311° |
| 2026-04-26 14:48 | 29.54113 | -98.48536 | 859 ft | 15 kts | 311° |
| 2026-04-26 14:48 | 29.54164 | -98.48600 | 862 ft | 6 kts | 319° |
| 2026-04-26 14:49 | 29.54211 | -98.48602 | 863 ft | 8 kts | 31° |
| 2026-04-26 14:49 | 29.54257 | -98.48558 | 864 ft | 5 kts | 41° |
| 2026-04-26 14:49 | 29.54252 | -98.48523 | 862 ft | 5 kts | 131° |
| 2026-04-26 14:49 | 29.54165 | -98.48412 | 864 ft | 50 kts | 132° |
| 2026-04-26 14:50 | 29.53767 | -98.47899 | 858 ft | 120 kts | 132° |
| 2026-04-26 14:50 | 29.53085 | -98.47029 | 841 ft | 174 kts | 132° |
| 2026-04-26 14:50 | 29.52240 | -98.45957 | 1408 ft | 180 kts | 133° |
| 2026-04-26 14:50 | 29.51377 | -98.44885 | 2071 ft | 186 kts | 138° |
| 2026-04-26 14:51 | 29.50412 | -98.43765 | 2417 ft | 206 kts | 137° |
| 2026-04-26 14:51 | 29.49328 | -98.42521 | 2527 ft | 232 kts | 137° |
| 2026-04-26 14:51 | 29.48433 | -98.40955 | 2915 ft | 247 kts | 107° |
| 2026-04-26 14:51 | 29.48480 | -98.38939 | 3300 ft | 268 kts | 70° |
| 2026-04-26 14:52 | 29.49501 | -98.37102 | 3813 ft | 279 kts | 44° |
| 2026-04-26 14:52 | 29.51167 | -98.35952 | 4432 ft | 284 kts | 14° |
| 2026-04-26 14:52 | 29.53123 | -98.35801 | 5161 ft | 281 kts | 352° |
| 2026-04-26 14:52 | 29.55040 | -98.36113 | 5876 ft | 281 kts | 348° |
| 2026-04-26 14:53 | 29.56969 | -98.36502 | 6565 ft | 282 kts | 348° |
| 2026-04-26 14:53 | 29.58909 | -98.36903 | 7236 ft | 283 kts | 348° |
| 2026-04-26 14:53 | 29.60857 | -98.37298 | 7913 ft | 284 kts | 348° |
| 2026-04-26 14:53 | 29.62812 | -98.37685 | 8604 ft | 285 kts | 348° |
| 2026-04-26 14:54 | 29.64757 | -98.38063 | 9259 ft | 288 kts | 348° |
| 2026-04-26 14:54 | 29.66745 | -98.38444 | 9913 ft | 290 kts | 348° |
| 2026-04-26 14:54 | 29.68764 | -98.38829 | 10354 ft | 301 kts | 348° |
| 2026-04-26 14:54 | 29.70906 | -98.39237 | 10478 ft | 321 kts | 348° |
| 2026-04-26 14:55 | 29.73149 | -98.39661 | 10618 ft | 339 kts | 348° |